sensor_id;sensor_type;location;lat;lon;timestamp;P1;durP1;ratioP1;P2;durP2;ratioP2
17524;SDS011;40431;52.198;9.902;2023-06-04T00:00:08;2.17;;;1.60;;
17524;SDS011;40431;52.198;9.902;2023-06-04T00:02:35;2.00;;;1.80;;
17524;SDS011;40431;52.198;9.902;2023-06-04T00:05:01;1.50;;;1.40;;
17524;SDS011;40431;52.198;9.902;2023-06-04T00:07:27;2.03;;;1.93;;
17524;SDS011;40431;52.198;9.902;2023-06-04T00:09:54;3.23;;;1.87;;
17524;SDS011;40431;52.198;9.902;2023-06-04T00:12:21;1.60;;;1.50;;
17524;SDS011;40431;52.198;9.902;2023-06-04T00:14:47;1.70;;;1.33;;
17524;SDS011;40431;52.198;9.902;2023-06-04T00:17:15;1.87;;;1.77;;
17524;SDS011;40431;52.198;9.902;2023-06-04T00:19:41;2.70;;;1.97;;
17524;SDS011;40431;52.198;9.902;2023-06-04T00:22:08;1.90;;;1.80;;
17524;SDS011;40431;52.198;9.902;2023-06-04T00:24:34;2.20;;;2.00;;
17524;SDS011;40431;52.198;9.902;2023-06-04T00:27:01;1.70;;;1.60;;
17524;SDS011;40431;52.198;9.902;2023-06-04T00:29:27;2.97;;;1.63;;
17524;SDS011;40431;52.198;9.902;2023-06-04T00:31:54;2.20;;;1.70;;
17524;SDS011;40431;52.198;9.902;2023-06-04T00:34:21;2.20;;;1.50;;
17524;SDS011;40431;52.198;9.902;2023-06-04T00:36:48;2.23;;;1.97;;
17524;SDS011;40431;52.198;9.902;2023-06-04T00:39:14;1.87;;;1.70;;
17524;SDS011;40431;52.198;9.902;2023-06-04T00:41:40;2.90;;;2.00;;
17524;SDS011;40431;52.198;9.902;2023-06-04T00:44:07;2.27;;;1.70;;
17524;SDS011;40431;52.198;9.902;2023-06-04T00:46:33;1.67;;;1.57;;
17524;SDS011;40431;52.198;9.902;2023-06-04T00:49:00;1.97;;;1.87;;
17524;SDS011;40431;52.198;9.902;2023-06-04T00:51:28;1.60;;;1.50;;
17524;SDS011;40431;52.198;9.902;2023-06-04T00:53:56;1.90;;;1.80;;
17524;SDS011;40431;52.198;9.902;2023-06-04T00:56:24;1.87;;;1.50;;
17524;SDS011;40431;52.198;9.902;2023-06-04T00:58:51;2.27;;;1.83;;
17524;SDS011;40431;52.198;9.902;2023-06-04T01:01:20;1.73;;;1.60;;
17524;SDS011;40431;52.198;9.902;2023-06-04T01:03:52;1.50;;;1.40;;
17524;SDS011;40431;52.198;9.902;2023-06-04T01:06:24;1.90;;;1.80;;
17524;SDS011;40431;52.198;9.902;2023-06-04T01:08:59;1.43;;;1.33;;
17524;SDS011;40431;52.198;9.902;2023-06-04T01:11:30;2.33;;;1.60;;
17524;SDS011;40431;52.198;9.902;2023-06-04T01:13:58;2.17;;;1.57;;
17524;SDS011;40431;52.198;9.902;2023-06-04T01:16:24;1.67;;;1.57;;
17524;SDS011;40431;52.198;9.902;2023-06-04T01:18:53;3.27;;;2.13;;
17524;SDS011;40431;52.198;9.902;2023-06-04T01:21:23;2.03;;;1.47;;
17524;SDS011;40431;52.198;9.902;2023-06-04T01:23:54;1.57;;;1.47;;
17524;SDS011;40431;52.198;9.902;2023-06-04T01:26:26;2.03;;;1.57;;
17524;SDS011;40431;52.198;9.902;2023-06-04T01:28:53;1.83;;;1.57;;
17524;SDS011;40431;52.198;9.902;2023-06-04T01:31:21;1.83;;;1.40;;
17524;SDS011;40431;52.198;9.902;2023-06-04T01:33:50;1.70;;;1.60;;
17524;SDS011;40431;52.198;9.902;2023-06-04T01:36:17;2.30;;;1.60;;
17524;SDS011;40431;52.198;9.902;2023-06-04T01:38:43;3.07;;;2.13;;
17524;SDS011;40431;52.198;9.902;2023-06-04T01:41:11;1.90;;;1.80;;
17524;SDS011;40431;52.198;9.902;2023-06-04T01:43:38;3.67;;;1.43;;
17524;SDS011;40431;52.198;9.902;2023-06-04T01:46:04;1.63;;;1.50;;
17524;SDS011;40431;52.198;9.902;2023-06-04T01:48:31;1.93;;;1.30;;
17524;SDS011;40431;52.198;9.902;2023-06-04T01:50:58;1.80;;;1.70;;
17524;SDS011;40431;52.198;9.902;2023-06-04T01:53:25;2.17;;;1.63;;
17524;SDS011;40431;52.198;9.902;2023-06-04T01:55:51;1.67;;;1.57;;
17524;SDS011;40431;52.198;9.902;2023-06-04T01:58:19;1.57;;;1.47;;
17524;SDS011;40431;52.198;9.902;2023-06-04T02:00:51;1.37;;;1.27;;
17524;SDS011;40431;52.198;9.902;2023-06-04T02:03:19;1.90;;;1.60;;
17524;SDS011;40431;52.198;9.902;2023-06-04T02:05:46;1.53;;;1.43;;
17524;SDS011;40431;52.198;9.902;2023-06-04T02:08:14;2.70;;;1.73;;
17524;SDS011;40431;52.198;9.902;2023-06-04T02:10:44;1.57;;;1.47;;
17524;SDS011;40431;52.198;9.902;2023-06-04T02:13:11;2.97;;;1.97;;
17524;SDS011;40431;52.198;9.902;2023-06-04T02:15:38;1.73;;;1.63;;
17524;SDS011;40431;52.198;9.902;2023-06-04T02:18:12;1.83;;;1.73;;
17524;SDS011;40431;52.198;9.902;2023-06-04T02:20:40;2.27;;;2.07;;
17524;SDS011;40431;52.198;9.902;2023-06-04T02:23:07;2.60;;;2.10;;
17524;SDS011;40431;52.198;9.902;2023-06-04T02:25:33;1.93;;;1.80;;
17524;SDS011;40431;52.198;9.902;2023-06-04T02:28:00;2.30;;;2.10;;
17524;SDS011;40431;52.198;9.902;2023-06-04T02:30:26;2.40;;;2.20;;
17524;SDS011;40431;52.198;9.902;2023-06-04T02:32:54;2.23;;;2.03;;
17524;SDS011;40431;52.198;9.902;2023-06-04T02:35:21;2.43;;;2.30;;
17524;SDS011;40431;52.198;9.902;2023-06-04T02:37:48;3.43;;;2.60;;
17524;SDS011;40431;52.198;9.902;2023-06-04T02:40:16;3.00;;;2.60;;
17524;SDS011;40431;52.198;9.902;2023-06-04T02:42:42;2.93;;;2.73;;
17524;SDS011;40431;52.198;9.902;2023-06-04T02:45:09;2.80;;;2.20;;
17524;SDS011;40431;52.198;9.902;2023-06-04T02:47:37;2.40;;;2.20;;
17524;SDS011;40431;52.198;9.902;2023-06-04T02:50:06;2.77;;;2.43;;
17524;SDS011;40431;52.198;9.902;2023-06-04T02:52:33;2.80;;;2.13;;
17524;SDS011;40431;52.198;9.902;2023-06-04T02:55:02;2.70;;;2.50;;
17524;SDS011;40431;52.198;9.902;2023-06-04T02:57:29;2.90;;;2.70;;
17524;SDS011;40431;52.198;9.902;2023-06-04T02:59:55;2.60;;;2.40;;
17524;SDS011;40431;52.198;9.902;2023-06-04T03:02:21;2.60;;;2.40;;
17524;SDS011;40431;52.198;9.902;2023-06-04T03:04:48;2.40;;;2.20;;
17524;SDS011;40431;52.198;9.902;2023-06-04T03:07:17;2.23;;;2.03;;
17524;SDS011;40431;52.198;9.902;2023-06-04T03:09:45;2.63;;;2.40;;
17524;SDS011;40431;52.198;9.902;2023-06-04T03:12:12;3.27;;;2.30;;
17524;SDS011;40431;52.198;9.902;2023-06-04T03:14:38;2.50;;;2.37;;
17524;SDS011;40431;52.198;9.902;2023-06-04T03:17:05;2.73;;;2.30;;
17524;SDS011;40431;52.198;9.902;2023-06-04T03:19:35;2.53;;;2.00;;
17524;SDS011;40431;52.198;9.902;2023-06-04T03:22:02;3.10;;;2.80;;
17524;SDS011;40431;52.198;9.902;2023-06-04T03:24:31;3.23;;;2.80;;
17524;SDS011;40431;52.198;9.902;2023-06-04T03:26:59;3.40;;;2.53;;
17524;SDS011;40431;52.198;9.902;2023-06-04T03:29:26;2.30;;;2.10;;
17524;SDS011;40431;52.198;9.902;2023-06-04T03:31:52;2.23;;;2.13;;
17524;SDS011;40431;52.198;9.902;2023-06-04T03:34:18;3.60;;;2.17;;
17524;SDS011;40431;52.198;9.902;2023-06-04T03:36:45;2.73;;;2.40;;
17524;SDS011;40431;52.198;9.902;2023-06-04T03:39:11;2.50;;;2.30;;
17524;SDS011;40431;52.198;9.902;2023-06-04T03:41:39;4.90;;;3.40;;
17524;SDS011;40431;52.198;9.902;2023-06-04T03:44:07;2.90;;;2.60;;
17524;SDS011;40431;52.198;9.902;2023-06-04T03:46:33;2.83;;;2.40;;
17524;SDS011;40431;52.198;9.902;2023-06-04T03:49:00;2.53;;;2.20;;
17524;SDS011;40431;52.198;9.902;2023-06-04T03:51:26;2.63;;;2.43;;
17524;SDS011;40431;52.198;9.902;2023-06-04T03:53:52;2.87;;;2.67;;
17524;SDS011;40431;52.198;9.902;2023-06-04T03:56:20;2.40;;;2.20;;
17524;SDS011;40431;52.198;9.902;2023-06-04T03:58:48;3.17;;;2.97;;
17524;SDS011;40431;52.198;9.902;2023-06-04T04:01:15;2.67;;;2.37;;
17524;SDS011;40431;52.198;9.902;2023-06-04T04:03:42;2.70;;;2.50;;
17524;SDS011;40431;52.198;9.902;2023-06-04T04:06:09;2.63;;;2.43;;
17524;SDS011;40431;52.198;9.902;2023-06-04T04:08:36;2.87;;;2.67;;
17524;SDS011;40431;52.198;9.902;2023-06-04T04:11:07;2.77;;;2.57;;
17524;SDS011;40431;52.198;9.902;2023-06-04T04:13:33;2.17;;;1.97;;
17524;SDS011;40431;52.198;9.902;2023-06-04T04:16:01;2.33;;;2.23;;
17524;SDS011;40431;52.198;9.902;2023-06-04T04:18:28;2.30;;;2.10;;
17524;SDS011;40431;52.198;9.902;2023-06-04T04:20:58;2.77;;;2.50;;
17524;SDS011;40431;52.198;9.902;2023-06-04T04:23:24;2.33;;;1.97;;
17524;SDS011;40431;52.198;9.902;2023-06-04T04:25:52;2.23;;;2.03;;
17524;SDS011;40431;52.198;9.902;2023-06-04T04:28:18;2.53;;;2.07;;
17524;SDS011;40431;52.198;9.902;2023-06-04T04:30:45;2.70;;;2.50;;
17524;SDS011;40431;52.198;9.902;2023-06-04T04:33:15;2.30;;;2.10;;
17524;SDS011;40431;52.198;9.902;2023-06-04T04:35:42;2.90;;;2.60;;
17524;SDS011;40431;52.198;9.902;2023-06-04T04:38:09;2.33;;;2.07;;
17524;SDS011;40431;52.198;9.902;2023-06-04T04:40:36;2.83;;;2.50;;
17524;SDS011;40431;52.198;9.902;2023-06-04T04:43:02;2.57;;;2.37;;
17524;SDS011;40431;52.198;9.902;2023-06-04T04:45:29;2.43;;;1.83;;
17524;SDS011;40431;52.198;9.902;2023-06-04T04:47:55;2.17;;;2.03;;
17524;SDS011;40431;52.198;9.902;2023-06-04T04:50:23;3.23;;;2.10;;
17524;SDS011;40431;52.198;9.902;2023-06-04T04:52:49;2.70;;;2.47;;
17524;SDS011;40431;52.198;9.902;2023-06-04T04:55:15;2.40;;;2.20;;
17524;SDS011;40431;52.198;9.902;2023-06-04T04:57:42;2.83;;;2.27;;
17524;SDS011;40431;52.198;9.902;2023-06-04T05:00:09;2.60;;;2.10;;
17524;SDS011;40431;52.198;9.902;2023-06-04T05:02:36;2.80;;;2.60;;
17524;SDS011;40431;52.198;9.902;2023-06-04T05:05:02;2.47;;;2.30;;
17524;SDS011;40431;52.198;9.902;2023-06-04T05:07:30;3.03;;;2.83;;
17524;SDS011;40431;52.198;9.902;2023-06-04T05:09:57;1.87;;;1.77;;
17524;SDS011;40431;52.198;9.902;2023-06-04T05:12:24;3.47;;;2.20;;
17524;SDS011;40431;52.198;9.902;2023-06-04T05:14:51;3.23;;;2.90;;
17524;SDS011;40431;52.198;9.902;2023-06-04T05:17:17;2.80;;;2.43;;
17524;SDS011;40431;52.198;9.902;2023-06-04T05:19:46;2.40;;;2.20;;
17524;SDS011;40431;52.198;9.902;2023-06-04T05:22:13;2.63;;;2.43;;
17524;SDS011;40431;52.198;9.902;2023-06-04T05:24:42;2.50;;;2.30;;
17524;SDS011;40431;52.198;9.902;2023-06-04T05:27:08;3.00;;;2.20;;
17524;SDS011;40431;52.198;9.902;2023-06-04T05:29:34;2.20;;;2.00;;
17524;SDS011;40431;52.198;9.902;2023-06-04T05:32:01;3.67;;;2.40;;
17524;SDS011;40431;52.198;9.902;2023-06-04T05:34:27;2.00;;;1.90;;
17524;SDS011;40431;52.198;9.902;2023-06-04T05:36:54;2.37;;;2.17;;
17524;SDS011;40431;52.198;9.902;2023-06-04T05:39:22;2.60;;;2.10;;
17524;SDS011;40431;52.198;9.902;2023-06-04T05:41:50;2.03;;;1.93;;
17524;SDS011;40431;52.198;9.902;2023-06-04T05:44:16;2.80;;;2.60;;
17524;SDS011;40431;52.198;9.902;2023-06-04T05:46:42;4.53;;;2.40;;
17524;SDS011;40431;52.198;9.902;2023-06-04T05:49:09;2.73;;;2.20;;
17524;SDS011;40431;52.198;9.902;2023-06-04T05:51:35;2.33;;;2.13;;
17524;SDS011;40431;52.198;9.902;2023-06-04T05:54:02;2.40;;;2.20;;
17524;SDS011;40431;52.198;9.902;2023-06-04T05:56:28;2.80;;;2.60;;
17524;SDS011;40431;52.198;9.902;2023-06-04T05:58:56;5.63;;;2.67;;
17524;SDS011;40431;52.198;9.902;2023-06-04T06:01:22;2.70;;;2.50;;
17524;SDS011;40431;52.198;9.902;2023-06-04T06:03:48;2.83;;;2.27;;
17524;SDS011;40431;52.198;9.902;2023-06-04T06:06:15;2.57;;;2.37;;
17524;SDS011;40431;52.198;9.902;2023-06-04T06:08:43;3.17;;;2.53;;
17524;SDS011;40431;52.198;9.902;2023-06-04T06:11:09;2.17;;;2.03;;
17524;SDS011;40431;52.198;9.902;2023-06-04T06:13:36;2.47;;;1.97;;
17524;SDS011;40431;52.198;9.902;2023-06-04T06:16:04;2.10;;;2.00;;
17524;SDS011;40431;52.198;9.902;2023-06-04T06:18:30;1.80;;;1.50;;
17524;SDS011;40431;52.198;9.902;2023-06-04T06:20:57;2.33;;;2.17;;
17524;SDS011;40431;52.198;9.902;2023-06-04T06:23:24;2.60;;;2.20;;
17524;SDS011;40431;52.198;9.902;2023-06-04T06:25:50;5.37;;;2.27;;
17524;SDS011;40431;52.198;9.902;2023-06-04T06:28:17;2.70;;;2.50;;
17524;SDS011;40431;52.198;9.902;2023-06-04T06:30:44;2.67;;;2.13;;
17524;SDS011;40431;52.198;9.902;2023-06-04T06:33:12;3.60;;;2.20;;
17524;SDS011;40431;52.198;9.902;2023-06-04T06:35:38;2.93;;;2.53;;
17524;SDS011;40431;52.198;9.902;2023-06-04T06:38:05;2.43;;;2.20;;
17524;SDS011;40431;52.198;9.902;2023-06-04T06:40:31;5.50;;;2.40;;
17524;SDS011;40431;52.198;9.902;2023-06-04T06:42:57;2.43;;;2.23;;
17524;SDS011;40431;52.198;9.902;2023-06-04T06:45:24;2.27;;;2.07;;
17524;SDS011;40431;52.198;9.902;2023-06-04T06:47:50;2.70;;;2.07;;
17524;SDS011;40431;52.198;9.902;2023-06-04T06:50:18;3.67;;;1.93;;
17524;SDS011;40431;52.198;9.902;2023-06-04T06:52:44;2.40;;;2.10;;
17524;SDS011;40431;52.198;9.902;2023-06-04T06:55:11;2.40;;;2.20;;
17524;SDS011;40431;52.198;9.902;2023-06-04T06:57:37;2.03;;;1.93;;
17524;SDS011;40431;52.198;9.902;2023-06-04T07:00:04;3.27;;;1.80;;
17524;SDS011;40431;52.198;9.902;2023-06-04T07:02:32;2.60;;;1.43;;
17524;SDS011;40431;52.198;9.902;2023-06-04T07:04:58;2.37;;;1.80;;
17524;SDS011;40431;52.198;9.902;2023-06-04T07:07:26;2.13;;;1.70;;
17524;SDS011;40431;52.198;9.902;2023-06-04T07:09:52;2.83;;;1.90;;
17524;SDS011;40431;52.198;9.902;2023-06-04T07:12:19;2.63;;;1.83;;
17524;SDS011;40431;52.198;9.902;2023-06-04T07:14:45;2.83;;;1.83;;
17524;SDS011;40431;52.198;9.902;2023-06-04T07:17:13;2.77;;;1.93;;
17524;SDS011;40431;52.198;9.902;2023-06-04T07:19:40;2.00;;;1.90;;
17524;SDS011;40431;52.198;9.902;2023-06-04T07:22:06;2.03;;;1.83;;
17524;SDS011;40431;52.198;9.902;2023-06-04T07:24:34;3.97;;;1.83;;
17524;SDS011;40431;52.198;9.902;2023-06-04T07:27:00;3.47;;;2.10;;
17524;SDS011;40431;52.198;9.902;2023-06-04T07:29:27;3.37;;;1.90;;
17524;SDS011;40431;52.198;9.902;2023-06-04T07:31:53;4.13;;;1.90;;
17524;SDS011;40431;52.198;9.902;2023-06-04T07:34:20;3.50;;;2.07;;
17524;SDS011;40431;52.198;9.902;2023-06-04T07:36:47;2.00;;;1.90;;
17524;SDS011;40431;52.198;9.902;2023-06-04T07:39:13;3.00;;;1.93;;
17524;SDS011;40431;52.198;9.902;2023-06-04T07:41:41;2.70;;;2.07;;
17524;SDS011;40431;52.198;9.902;2023-06-04T07:44:07;2.27;;;2.07;;
17524;SDS011;40431;52.198;9.902;2023-06-04T07:46:34;2.50;;;1.70;;
17524;SDS011;40431;52.198;9.902;2023-06-04T07:49:00;1.90;;;1.80;;
17524;SDS011;40431;52.198;9.902;2023-06-04T07:51:26;2.87;;;1.97;;
17524;SDS011;40431;52.198;9.902;2023-06-04T07:53:53;2.40;;;1.90;;
17524;SDS011;40431;52.198;9.902;2023-06-04T07:56:19;2.53;;;1.70;;
17524;SDS011;40431;52.198;9.902;2023-06-04T07:58:47;2.53;;;2.03;;
17524;SDS011;40431;52.198;9.902;2023-06-04T08:01:15;2.00;;;1.90;;
17524;SDS011;40431;52.198;9.902;2023-06-04T08:03:41;2.37;;;2.17;;
17524;SDS011;40431;52.198;9.902;2023-06-04T08:06:11;2.30;;;2.10;;
17524;SDS011;40431;52.198;9.902;2023-06-04T08:08:41;2.00;;;1.90;;
17524;SDS011;40431;52.198;9.902;2023-06-04T08:11:09;8.57;;;1.90;;
17524;SDS011;40431;52.198;9.902;2023-06-04T08:13:35;1.80;;;1.70;;
17524;SDS011;40431;52.198;9.902;2023-06-04T08:16:03;2.30;;;1.70;;
17524;SDS011;40431;52.198;9.902;2023-06-04T08:18:29;1.97;;;1.80;;
17524;SDS011;40431;52.198;9.902;2023-06-04T08:20:56;2.83;;;2.00;;
17524;SDS011;40431;52.198;9.902;2023-06-04T08:23:22;2.30;;;1.90;;
17524;SDS011;40431;52.198;9.902;2023-06-04T08:25:48;2.07;;;1.97;;
17524;SDS011;40431;52.198;9.902;2023-06-04T08:28:15;1.80;;;1.70;;
17524;SDS011;40431;52.198;9.902;2023-06-04T08:30:44;1.90;;;1.80;;
17524;SDS011;40431;52.198;9.902;2023-06-04T08:33:12;1.80;;;1.70;;
17524;SDS011;40431;52.198;9.902;2023-06-04T08:35:38;3.20;;;1.90;;
17524;SDS011;40431;52.198;9.902;2023-06-04T08:38:05;2.90;;;2.07;;
17524;SDS011;40431;52.198;9.902;2023-06-04T08:40:31;1.73;;;1.53;;
17524;SDS011;40431;52.198;9.902;2023-06-04T08:42:59;2.23;;;1.97;;
17524;SDS011;40431;52.198;9.902;2023-06-04T08:45:26;2.43;;;1.63;;
17524;SDS011;40431;52.198;9.902;2023-06-04T08:47:53;2.87;;;1.60;;
17524;SDS011;40431;52.198;9.902;2023-06-04T08:50:22;2.77;;;1.50;;
17524;SDS011;40431;52.198;9.902;2023-06-04T08:52:51;2.40;;;2.13;;
17524;SDS011;40431;52.198;9.902;2023-06-04T08:55:19;8.63;;;7.03;;
17524;SDS011;40431;52.198;9.902;2023-06-04T08:57:47;4.70;;;1.60;;
17524;SDS011;40431;52.198;9.902;2023-06-04T09:00:16;2.30;;;1.40;;
17524;SDS011;40431;52.198;9.902;2023-06-04T09:02:43;2.10;;;1.90;;
17524;SDS011;40431;52.198;9.902;2023-06-04T09:05:11;3.07;;;1.60;;
17524;SDS011;40431;52.198;9.902;2023-06-04T09:07:47;2.03;;;1.10;;
17524;SDS011;40431;52.198;9.902;2023-06-04T09:10:17;2.50;;;1.60;;
17524;SDS011;40431;52.198;9.902;2023-06-04T09:12:46;3.10;;;1.50;;
17524;SDS011;40431;52.198;9.902;2023-06-04T09:15:13;2.57;;;1.50;;
17524;SDS011;40431;52.198;9.902;2023-06-04T09:17:39;2.00;;;1.20;;
17524;SDS011;40431;52.198;9.902;2023-06-04T09:20:06;1.63;;;1.53;;
17524;SDS011;40431;52.198;9.902;2023-06-04T09:22:35;1.77;;;1.17;;
17524;SDS011;40431;52.198;9.902;2023-06-04T09:25:05;2.27;;;1.50;;
17524;SDS011;40431;52.198;9.902;2023-06-04T09:27:37;5.20;;;1.33;;
17524;SDS011;40431;52.198;9.902;2023-06-04T09:30:04;4.43;;;1.40;;
17524;SDS011;40431;52.198;9.902;2023-06-04T09:32:33;3.67;;;1.60;;
17524;SDS011;40431;52.198;9.902;2023-06-04T09:35:07;2.17;;;1.37;;
17524;SDS011;40431;52.198;9.902;2023-06-04T09:37:35;2.43;;;1.50;;
17524;SDS011;40431;52.198;9.902;2023-06-04T09:40:02;1.97;;;1.10;;
17524;SDS011;40431;52.198;9.902;2023-06-04T09:42:31;2.30;;;1.40;;
17524;SDS011;40431;52.198;9.902;2023-06-04T09:45:08;4.97;;;4.53;;
17524;SDS011;40431;52.198;9.902;2023-06-04T09:47:38;1.37;;;1.27;;
17524;SDS011;40431;52.198;9.902;2023-06-04T09:50:06;2.60;;;1.30;;
17524;SDS011;40431;52.198;9.902;2023-06-04T09:52:34;2.23;;;1.43;;
17524;SDS011;40431;52.198;9.902;2023-06-04T09:55:01;1.87;;;1.30;;
17524;SDS011;40431;52.198;9.902;2023-06-04T09:57:28;1.67;;;1.40;;
17524;SDS011;40431;52.198;9.902;2023-06-04T09:59:57;1.57;;;1.30;;
17524;SDS011;40431;52.198;9.902;2023-06-04T10:02:24;1.73;;;1.27;;
17524;SDS011;40431;52.198;9.902;2023-06-04T10:04:55;1.60;;;1.03;;
17524;SDS011;40431;52.198;9.902;2023-06-04T10:07:22;1.27;;;1.10;;
17524;SDS011;40431;52.198;9.902;2023-06-04T10:09:50;1.30;;;1.17;;
17524;SDS011;40431;52.198;9.902;2023-06-04T10:12:19;1.30;;;1.20;;
17524;SDS011;40431;52.198;9.902;2023-06-04T10:14:51;3.43;;;1.50;;
17524;SDS011;40431;52.198;9.902;2023-06-04T10:17:21;1.50;;;1.40;;
17524;SDS011;40431;52.198;9.902;2023-06-04T10:19:49;1.00;;;1.00;;
17524;SDS011;40431;52.198;9.902;2023-06-04T10:22:19;1.37;;;1.23;;
17524;SDS011;40431;52.198;9.902;2023-06-04T10:24:46;2.53;;;1.20;;
17524;SDS011;40431;52.198;9.902;2023-06-04T10:27:13;1.63;;;1.13;;
17524;SDS011;40431;52.198;9.902;2023-06-04T10:29:39;1.40;;;1.10;;
17524;SDS011;40431;52.198;9.902;2023-06-04T10:32:05;3.13;;;1.20;;
17524;SDS011;40431;52.198;9.902;2023-06-04T10:34:33;2.30;;;1.10;;
17524;SDS011;40431;52.198;9.902;2023-06-04T10:37:02;1.23;;;1.13;;
17524;SDS011;40431;52.198;9.902;2023-06-04T10:39:29;1.13;;;1.03;;
17524;SDS011;40431;52.198;9.902;2023-06-04T10:41:58;1.50;;;1.27;;
17524;SDS011;40431;52.198;9.902;2023-06-04T10:44:25;2.70;;;1.40;;
17524;SDS011;40431;52.198;9.902;2023-06-04T10:46:52;1.47;;;1.33;;
17524;SDS011;40431;52.198;9.902;2023-06-04T10:49:25;2.93;;;1.20;;
17524;SDS011;40431;52.198;9.902;2023-06-04T10:51:54;1.20;;;1.10;;
17524;SDS011;40431;52.198;9.902;2023-06-04T10:54:22;1.27;;;1.17;;
17524;SDS011;40431;52.198;9.902;2023-06-04T10:56:51;1.30;;;1.07;;
17524;SDS011;40431;52.198;9.902;2023-06-04T10:59:18;2.57;;;1.30;;
17524;SDS011;40431;52.198;9.902;2023-06-04T11:01:44;1.37;;;1.27;;
17524;SDS011;40431;52.198;9.902;2023-06-04T11:04:18;1.77;;;1.20;;
17524;SDS011;40431;52.198;9.902;2023-06-04T11:06:46;1.50;;;1.00;;
17524;SDS011;40431;52.198;9.902;2023-06-04T11:09:14;1.97;;;1.30;;
17524;SDS011;40431;52.198;9.902;2023-06-04T11:11:41;1.23;;;1.13;;
17524;SDS011;40431;52.198;9.902;2023-06-04T11:14:08;1.20;;;1.10;;
17524;SDS011;40431;52.198;9.902;2023-06-04T11:16:36;1.27;;;1.17;;
17524;SDS011;40431;52.198;9.902;2023-06-04T11:19:03;2.43;;;1.17;;
17524;SDS011;40431;52.198;9.902;2023-06-04T11:21:29;1.40;;;1.30;;
17524;SDS011;40431;52.198;9.902;2023-06-04T11:23:57;1.37;;;1.20;;
17524;SDS011;40431;52.198;9.902;2023-06-04T11:26:30;1.67;;;1.27;;
17524;SDS011;40431;52.198;9.902;2023-06-04T11:28:57;1.37;;;1.20;;
17524;SDS011;40431;52.198;9.902;2023-06-04T11:31:24;1.50;;;1.20;;
17524;SDS011;40431;52.198;9.902;2023-06-04T11:33:50;1.93;;;1.33;;
17524;SDS011;40431;52.198;9.902;2023-06-04T11:36:23;2.00;;;1.00;;
17524;SDS011;40431;52.198;9.902;2023-06-04T11:38:55;1.53;;;1.20;;
17524;SDS011;40431;52.198;9.902;2023-06-04T11:41:22;1.70;;;1.10;;
17524;SDS011;40431;52.198;9.902;2023-06-04T11:43:51;1.70;;;0.90;;
17524;SDS011;40431;52.198;9.902;2023-06-04T11:46:17;1.47;;;1.07;;
17524;SDS011;40431;52.198;9.902;2023-06-04T11:48:44;1.50;;;1.20;;
17524;SDS011;40431;52.198;9.902;2023-06-04T11:51:11;1.70;;;1.30;;
17524;SDS011;40431;52.198;9.902;2023-06-04T11:53:38;1.80;;;1.50;;
17524;SDS011;40431;52.198;9.902;2023-06-04T11:56:05;2.70;;;1.40;;
17524;SDS011;40431;52.198;9.902;2023-06-04T11:58:32;1.47;;;1.30;;
17524;SDS011;40431;52.198;9.902;2023-06-04T12:01:00;1.23;;;1.10;;
17524;SDS011;40431;52.198;9.902;2023-06-04T12:03:31;2.67;;;1.50;;
17524;SDS011;40431;52.198;9.902;2023-06-04T12:06:08;1.73;;;1.37;;
17524;SDS011;40431;52.198;9.902;2023-06-04T12:08:43;1.13;;;1.03;;
17524;SDS011;40431;52.198;9.902;2023-06-04T12:11:20;1.30;;;1.20;;
17524;SDS011;40431;52.198;9.902;2023-06-04T12:13:53;2.23;;;1.03;;
17524;SDS011;40431;52.198;9.902;2023-06-04T12:16:22;1.77;;;1.00;;
17524;SDS011;40431;52.198;9.902;2023-06-04T12:18:49;1.23;;;1.00;;
17524;SDS011;40431;52.198;9.902;2023-06-04T12:21:25;1.20;;;1.10;;
17524;SDS011;40431;52.198;9.902;2023-06-04T12:23:53;3.20;;;1.10;;
17524;SDS011;40431;52.198;9.902;2023-06-04T12:26:21;1.10;;;1.00;;
17524;SDS011;40431;52.198;9.902;2023-06-04T12:28:58;1.67;;;1.20;;
17524;SDS011;40431;52.198;9.902;2023-06-04T12:31:27;2.07;;;1.20;;
17524;SDS011;40431;52.198;9.902;2023-06-04T12:33:57;1.37;;;1.27;;
17524;SDS011;40431;52.198;9.902;2023-06-04T12:36:24;1.60;;;1.30;;
17524;SDS011;40431;52.198;9.902;2023-06-04T12:38:51;1.97;;;1.10;;
17524;SDS011;40431;52.198;9.902;2023-06-04T12:41:17;2.00;;;1.17;;
17524;SDS011;40431;52.198;9.902;2023-06-04T12:43:44;3.33;;;1.27;;
17524;SDS011;40431;52.198;9.902;2023-06-04T12:46:10;3.33;;;1.47;;
17524;SDS011;40431;52.198;9.902;2023-06-04T12:48:38;1.00;;;1.00;;
17524;SDS011;40431;52.198;9.902;2023-06-04T12:51:05;1.70;;;1.07;;
17524;SDS011;40431;52.198;9.902;2023-06-04T12:53:33;1.67;;;1.10;;
17524;SDS011;40431;52.198;9.902;2023-06-04T12:55:59;1.57;;;1.07;;
17524;SDS011;40431;52.198;9.902;2023-06-04T12:58:26;1.23;;;1.13;;
17524;SDS011;40431;52.198;9.902;2023-06-04T13:00:52;2.13;;;1.30;;
17524;SDS011;40431;52.198;9.902;2023-06-04T13:03:18;1.10;;;1.00;;
17524;SDS011;40431;52.198;9.902;2023-06-04T13:05:46;1.43;;;1.20;;
17524;SDS011;40431;52.198;9.902;2023-06-04T13:08:13;1.63;;;1.13;;
17524;SDS011;40431;52.198;9.902;2023-06-04T13:10:40;2.13;;;1.20;;
17524;SDS011;40431;52.198;9.902;2023-06-04T13:13:06;2.83;;;1.33;;
17524;SDS011;40431;52.198;9.902;2023-06-04T13:15:32;3.30;;;1.30;;
17524;SDS011;40431;52.198;9.902;2023-06-04T13:17:59;1.27;;;1.17;;
17524;SDS011;40431;52.198;9.902;2023-06-04T13:20:28;1.30;;;1.10;;
17524;SDS011;40431;52.198;9.902;2023-06-04T13:22:56;1.33;;;1.20;;
17524;SDS011;40431;52.198;9.902;2023-06-04T13:25:22;1.80;;;1.20;;
17524;SDS011;40431;52.198;9.902;2023-06-04T13:27:49;1.30;;;1.20;;
17524;SDS011;40431;52.198;9.902;2023-06-04T13:30:15;1.73;;;1.17;;
17524;SDS011;40431;52.198;9.902;2023-06-04T13:32:41;3.13;;;1.03;;
17524;SDS011;40431;52.198;9.902;2023-06-04T13:35:08;1.00;;;0.80;;
17524;SDS011;40431;52.198;9.902;2023-06-04T13:37:35;2.27;;;1.20;;
17524;SDS011;40431;52.198;9.902;2023-06-04T13:40:02;1.90;;;1.00;;
17524;SDS011;40431;52.198;9.902;2023-06-04T13:42:29;2.27;;;1.37;;
17524;SDS011;40431;52.198;9.902;2023-06-04T13:44:56;1.20;;;1.10;;
17524;SDS011;40431;52.198;9.902;2023-06-04T13:47:22;1.67;;;0.90;;
17524;SDS011;40431;52.198;9.902;2023-06-04T13:49:48;6.43;;;1.13;;
17524;SDS011;40431;52.198;9.902;2023-06-04T13:52:15;4.60;;;1.13;;
17524;SDS011;40431;52.198;9.902;2023-06-04T13:54:42;1.00;;;0.90;;
17524;SDS011;40431;52.198;9.902;2023-06-04T13:57:09;1.90;;;1.00;;
17524;SDS011;40431;52.198;9.902;2023-06-04T13:59:36;1.00;;;0.90;;
17524;SDS011;40431;52.198;9.902;2023-06-04T14:02:03;1.53;;;0.90;;
17524;SDS011;40431;52.198;9.902;2023-06-04T14:04:29;1.00;;;1.00;;
17524;SDS011;40431;52.198;9.902;2023-06-04T14:06:56;2.07;;;1.20;;
17524;SDS011;40431;52.198;9.902;2023-06-04T14:09:22;1.20;;;1.00;;
17524;SDS011;40431;52.198;9.902;2023-06-04T14:11:49;1.47;;;1.30;;
17524;SDS011;40431;52.198;9.902;2023-06-04T14:14:17;3.13;;;1.10;;
17524;SDS011;40431;52.198;9.902;2023-06-04T14:16:44;1.30;;;1.20;;
17524;SDS011;40431;52.198;9.902;2023-06-04T14:19:10;2.30;;;1.23;;
17524;SDS011;40431;52.198;9.902;2023-06-04T14:21:37;1.20;;;1.10;;
17524;SDS011;40431;52.198;9.902;2023-06-04T14:24:03;1.10;;;1.00;;
17524;SDS011;40431;52.198;9.902;2023-06-04T14:26:30;1.63;;;0.80;;
17524;SDS011;40431;52.198;9.902;2023-06-04T14:28:56;2.00;;;1.20;;
17524;SDS011;40431;52.198;9.902;2023-06-04T14:31:24;1.53;;;0.90;;
17524;SDS011;40431;52.198;9.902;2023-06-04T14:33:50;2.07;;;1.20;;
17524;SDS011;40431;52.198;9.902;2023-06-04T14:36:18;1.43;;;0.90;;
17524;SDS011;40431;52.198;9.902;2023-06-04T14:38:44;1.87;;;0.90;;
17524;SDS011;40431;52.198;9.902;2023-06-04T14:41:11;2.77;;;1.00;;
17524;SDS011;40431;52.198;9.902;2023-06-04T14:43:37;1.40;;;1.10;;
17524;SDS011;40431;52.198;9.902;2023-06-04T14:46:04;1.80;;;1.30;;
17524;SDS011;40431;52.198;9.902;2023-06-04T14:48:31;1.20;;;0.90;;